Camden, South Carolina
Current Conditions -  °F | °C
As of 12:55 PM on Sunday 21 Dec 2014 (Local Time) from KCDN Reporting Station
Scattered Clouds Scattered Clouds  
Wind Chill: 50°   Ceiling: Unl
Heat Index: 50°   Visibility: 10mi
Dew Point: 37°   Wind: 12mph
Humidity: 62%   Direction: 50°NE
Pressure: 30.22"   Gusts: NA
Location:  34.25°N, 80.61°W
Report Text: KCDN 211755Z AUTO 05010KT 10SM SCT090 10/03 A3022 RMK AO2 TSNO
Loading
Personal Weather Stations






























Interactive Weather Map New forecast layout! Learn more

10-Day Weather Forecast

Advertisements
Track Severe Weather on mobile